createdAt,value
2023-04-23T00:00:07.169Z,11.13
2023-04-23T00:02:40.865Z,10.88
2023-04-23T00:05:08.785Z,11.13
2023-04-23T00:07:36.644Z,11.50
2023-04-23T00:10:05.728Z,8.90
2023-04-23T00:12:33.153Z,10.43
2023-04-23T00:15:00.605Z,11.38
2023-04-23T00:17:27.711Z,9.75
2023-04-23T00:19:54.956Z,9.15
2023-04-23T00:22:22.197Z,10.52
2023-04-23T00:24:49.261Z,11.07
2023-04-23T00:27:18.075Z,8.00
2023-04-23T00:29:46.416Z,8.63
2023-04-23T00:32:14.929Z,8.60
2023-04-23T00:34:42.172Z,8.43
2023-04-23T00:37:09.609Z,8.63
2023-04-23T00:39:38.761Z,8.07
2023-04-23T00:42:11.577Z,8.55
2023-04-23T00:44:40.164Z,8.90
2023-04-23T00:47:08.063Z,8.13
2023-04-23T00:49:36.230Z,7.78
2023-04-23T00:52:06.732Z,7.63
2023-04-23T00:54:34.174Z,8.80
2023-04-23T00:57:02.431Z,9.18
2023-04-23T00:59:30.663Z,6.78
2023-04-23T01:01:59.347Z,8.30
2023-04-23T01:04:29.534Z,8.32
2023-04-23T01:06:58.015Z,7.43
2023-04-23T01:09:27.818Z,8.15
2023-04-23T01:11:55.596Z,8.32
2023-04-23T01:14:22.834Z,7.28
2023-04-23T01:16:50.427Z,8.23
2023-04-23T01:19:17.955Z,7.55
2023-04-23T01:21:45.363Z,7.93
2023-04-23T01:24:12.832Z,7.47
2023-04-23T01:26:40.723Z,6.60
2023-04-23T01:29:09.868Z,6.65
2023-04-23T01:31:37.747Z,7.25
2023-04-23T01:34:05.384Z,8.25
2023-04-23T01:36:33.340Z,8.55
2023-04-23T01:39:00.494Z,7.57
2023-04-23T01:41:28.538Z,6.90
2023-04-23T01:43:57.232Z,6.90
2023-04-23T01:46:24.492Z,7.50
2023-04-23T01:48:51.745Z,7.68
2023-04-23T01:51:18.755Z,7.88
2023-04-23T01:53:45.838Z,6.88
2023-04-23T01:56:14.764Z,7.32
2023-04-23T01:58:41.744Z,7.43
2023-04-23T02:01:08.782Z,7.22
2023-04-23T02:03:35.998Z,7.03
2023-04-23T02:06:05.039Z,7.03
2023-04-23T02:08:32.163Z,7.50
2023-04-23T02:10:59.167Z,8.93
2023-04-23T02:13:26.120Z,7.95
2023-04-23T02:15:53.216Z,7.60
2023-04-23T02:18:20.475Z,7.55
2023-04-23T02:20:48.171Z,7.40
2023-04-23T02:23:15.617Z,7.78
2023-04-23T02:25:43.456Z,8.30
2023-04-23T02:28:13.460Z,7.82
2023-04-23T02:30:46.008Z,8.73
2023-04-23T02:33:15.330Z,7.78
2023-04-23T02:35:42.296Z,6.70
2023-04-23T02:38:09.223Z,7.93
2023-04-23T02:40:36.456Z,7.53
2023-04-23T02:43:03.579Z,6.78
2023-04-23T02:45:30.520Z,7.13
2023-04-23T02:47:57.997Z,7.00
2023-04-23T02:50:24.977Z,5.95
2023-04-23T02:52:52.284Z,6.75
2023-04-23T02:55:19.221Z,6.47
2023-04-23T02:57:46.376Z,5.25
2023-04-23T03:00:15.179Z,6.38
2023-04-23T03:02:44.099Z,5.95
2023-04-23T03:05:11.485Z,7.05
2023-04-23T03:07:38.580Z,7.10
2023-04-23T03:10:06.850Z,5.80
2023-04-23T03:12:34.267Z,6.13
2023-04-23T03:15:01.338Z,5.63
2023-04-23T03:17:31.186Z,7.00
2023-04-23T03:19:58.691Z,5.88
2023-04-23T03:22:25.776Z,6.38
2023-04-23T03:24:52.812Z,5.72
2023-04-23T03:27:20.966Z,6.05
2023-04-23T03:29:48.368Z,5.80
2023-04-23T03:32:15.558Z,6.22
2023-04-23T03:34:43.272Z,5.68
2023-04-23T03:37:10.831Z,5.75
2023-04-23T03:39:39.413Z,5.72
2023-04-23T03:42:08.006Z,6.10
2023-04-23T03:44:35.810Z,6.63
2023-04-23T03:47:03.918Z,5.68
2023-04-23T03:49:32.319Z,6.50
2023-04-23T03:51:59.371Z,5.53
2023-04-23T03:54:28.316Z,6.25
2023-04-23T03:57:24.134Z,6.78
2023-04-23T04:00:11.929Z,8.07
2023-04-23T04:02:42.362Z,6.22
2023-04-23T04:05:11.492Z,7.18
2023-04-23T04:07:39.159Z,6.20
2023-04-23T04:10:07.880Z,5.35
2023-04-23T04:12:35.008Z,6.25
2023-04-23T04:15:03.642Z,6.45
2023-04-23T04:17:30.688Z,6.18
2023-04-23T04:19:57.811Z,5.82
2023-04-23T04:22:24.883Z,6.63
2023-04-23T04:24:52.837Z,6.93
2023-04-23T04:27:20.032Z,5.65
2023-04-23T04:29:47.211Z,4.85
2023-04-23T04:32:14.716Z,6.80
2023-04-23T04:34:41.912Z,5.22
2023-04-23T04:37:10.971Z,6.05
2023-04-23T04:39:37.929Z,5.38
2023-04-23T04:42:06.788Z,5.72
2023-04-23T04:44:38.444Z,5.82
2023-04-23T04:47:08.274Z,6.18
2023-04-23T04:49:35.996Z,6.30
2023-04-23T04:52:03.087Z,6.25
2023-04-23T04:54:30.014Z,5.80
2023-04-23T04:56:57.043Z,5.53
2023-04-23T04:59:24.087Z,6.13
2023-04-23T05:01:51.126Z,5.43
2023-04-23T05:04:18.222Z,5.85
2023-04-23T05:06:45.448Z,5.65
2023-04-23T05:09:12.394Z,5.25
2023-04-23T05:11:41.142Z,5.35
2023-04-23T05:14:08.236Z,5.03
2023-04-23T05:16:35.621Z,6.00
2023-04-23T05:19:02.720Z,5.30
2023-04-23T05:21:29.847Z,5.70
2023-04-23T05:23:57.100Z,5.90
2023-04-23T05:26:24.269Z,5.13
2023-04-23T05:28:51.277Z,4.88
2023-04-23T05:31:18.495Z,5.47
2023-04-23T05:33:50.369Z,5.10
2023-04-23T05:36:18.616Z,5.15
2023-04-23T05:38:45.736Z,5.10
2023-04-23T05:41:15.023Z,6.30
2023-04-23T05:43:42.272Z,4.88
2023-04-23T05:46:09.719Z,5.28
2023-04-23T05:48:36.745Z,4.93
2023-04-23T05:51:03.965Z,5.25
2023-04-23T05:53:31.072Z,4.78
2023-04-23T05:55:58.121Z,4.75
2023-04-23T05:58:25.865Z,4.65
2023-04-23T06:00:53.485Z,4.30
2023-04-23T06:03:21.078Z,4.75
2023-04-23T06:05:48.299Z,4.78
2023-04-23T06:08:15.261Z,4.63
2023-04-23T06:10:42.378Z,4.75
2023-04-23T06:13:10.966Z,4.10
2023-04-23T06:15:38.271Z,4.55
2023-04-23T06:18:05.860Z,5.38
2023-04-23T06:20:33.048Z,3.95
2023-04-23T06:23:00.120Z,5.43
2023-04-23T06:25:27.221Z,3.83
2023-04-23T06:27:54.611Z,5.13
2023-04-23T06:30:25.179Z,3.40
2023-04-23T06:32:53.176Z,3.40
2023-04-23T06:35:20.730Z,4.18
2023-04-23T06:37:47.791Z,3.95
2023-04-23T06:40:15.173Z,3.63
2023-04-23T06:42:42.810Z,3.45
2023-04-23T06:45:33.402Z,3.75
2023-04-23T06:48:00.816Z,3.90
2023-04-23T06:50:27.975Z,3.28
2023-04-23T06:52:56.385Z,3.22
2023-04-23T06:55:26.330Z,3.58
2023-04-23T06:57:53.936Z,3.80
2023-04-23T07:00:22.018Z,3.17
2023-04-23T07:02:49.652Z,3.25
2023-04-23T07:05:19.540Z,3.30
2023-04-23T07:07:46.464Z,3.60
2023-04-23T07:10:15.539Z,4.53
2023-04-23T07:12:43.892Z,3.03
2023-04-23T07:15:11.670Z,2.70
2023-04-23T07:17:38.733Z,2.95
2023-04-23T07:20:10.565Z,2.85
2023-04-23T07:25:06.144Z,2.38
2023-04-23T07:27:33.306Z,2.88
2023-04-23T07:30:02.117Z,2.55
2023-04-23T07:32:29.503Z,2.10
2023-04-23T07:34:56.526Z,2.58
2023-04-23T07:37:23.711Z,2.72
2023-04-23T07:39:50.819Z,2.22
2023-04-23T07:42:18.120Z,2.00
2023-04-23T07:44:45.205Z,2.20
2023-04-23T07:47:12.248Z,2.75
2023-04-23T07:49:39.503Z,2.00
2023-04-23T07:52:06.862Z,2.20
2023-04-23T07:54:33.846Z,2.58
2023-04-23T07:57:01.443Z,1.90
2023-04-23T07:59:29.318Z,2.38
2023-04-23T08:01:56.409Z,2.03
2023-04-23T08:04:24.098Z,2.00
2023-04-23T08:06:52.165Z,2.15
2023-04-23T08:09:19.202Z,1.75
2023-04-23T08:11:46.446Z,1.90
2023-04-23T08:14:13.506Z,1.90
2023-04-23T08:16:40.914Z,2.10
2023-04-23T08:19:08.188Z,1.70
2023-04-23T08:21:36.398Z,2.22
2023-04-23T08:24:04.387Z,1.90
2023-04-23T08:26:31.724Z,2.72
2023-04-23T08:29:00.831Z,1.75
2023-04-23T08:31:28.569Z,1.90
2023-04-23T08:33:56.629Z,1.70
2023-04-23T08:36:24.542Z,1.70
2023-04-23T08:38:51.669Z,1.70
2023-04-23T08:41:22.772Z,2.10
2023-04-23T08:44:13.609Z,1.70
2023-04-23T08:46:44.605Z,1.67
2023-04-23T08:49:20.823Z,1.65
2023-04-23T08:51:54.343Z,1.42
2023-04-23T08:54:28.790Z,1.40
2023-04-23T08:57:02.056Z,1.50
2023-04-23T08:59:34.436Z,1.50
2023-04-23T09:02:08.019Z,1.60
2023-04-23T09:04:36.271Z,1.40
2023-04-23T09:07:13.402Z,1.48
2023-04-23T09:09:41.331Z,1.40
2023-04-23T09:12:09.922Z,1.13
2023-04-23T09:14:37.341Z,1.17
2023-04-23T09:17:04.548Z,1.38
2023-04-23T09:19:32.613Z,1.30
2023-04-23T09:22:02.532Z,1.27
2023-04-23T09:24:30.358Z,1.48
2023-04-23T09:26:58.464Z,1.73
2023-04-23T09:29:26.113Z,1.38
2023-04-23T09:31:55.945Z,3.08
2023-04-23T09:34:25.146Z,1.15
2023-04-23T09:36:53.526Z,1.48
2023-04-23T09:39:24.363Z,1.70
2023-04-23T09:41:59.612Z,0.90
2023-04-23T09:44:31.826Z,1.17
2023-04-23T09:47:09.886Z,1.30
2023-04-23T09:49:46.932Z,1.10
2023-04-23T09:52:14.416Z,1.00
2023-04-23T09:54:42.492Z,1.30
2023-04-23T09:57:11.861Z,1.05
2023-04-23T09:59:47.781Z,0.93
2023-04-23T10:02:19.769Z,1.23
2023-04-23T10:05:00.637Z,1.23
2023-04-23T10:07:34.597Z,1.13
2023-04-23T10:10:01.605Z,1.05
2023-04-23T10:12:46.135Z,1.10
2023-04-23T10:15:15.849Z,0.98
2023-04-23T10:17:43.095Z,0.70
2023-04-23T10:20:12.246Z,0.85
2023-04-23T10:22:40.994Z,1.45
2023-04-23T10:25:12.234Z,0.75
2023-04-23T10:27:53.222Z,1.00
2023-04-23T10:30:23.246Z,0.63
2023-04-23T10:32:51.066Z,0.90
2023-04-23T10:35:18.419Z,1.02
2023-04-23T10:37:48.419Z,1.25
2023-04-23T10:40:22.160Z,0.80
2023-04-23T10:42:50.108Z,0.70
2023-04-23T10:47:48.453Z,1.00
2023-04-23T10:50:21.025Z,0.80
2023-04-23T10:52:51.618Z,0.85
2023-04-23T10:55:24.050Z,0.85
2023-04-23T10:58:01.678Z,0.80
2023-04-23T11:00:49.116Z,1.10
2023-04-23T11:03:32.885Z,0.73
2023-04-23T11:06:05.226Z,0.80
2023-04-23T11:08:34.887Z,0.88
2023-04-23T11:11:08.132Z,0.80
2023-04-23T11:13:35.421Z,0.93
2023-04-23T11:16:22.197Z,0.73
2023-04-23T11:19:19.798Z,0.80
2023-04-23T11:22:01.208Z,1.02
2023-04-23T11:24:39.052Z,1.25
2023-04-23T11:27:13.888Z,0.80
2023-04-23T11:29:42.922Z,0.77
2023-04-23T11:32:16.888Z,0.60
2023-04-23T11:34:45.459Z,0.70
2023-04-23T11:37:15.665Z,0.90
2023-04-23T11:39:45.229Z,0.70
2023-04-23T11:42:16.659Z,0.60
2023-04-23T11:44:45.393Z,0.50
2023-04-23T11:47:14.438Z,0.70
2023-04-23T11:49:43.619Z,0.57
2023-04-23T11:52:12.335Z,0.55
2023-04-23T11:54:44.754Z,0.57
2023-04-23T11:57:14.565Z,0.73
2023-04-23T11:59:41.937Z,0.50
2023-04-23T12:02:09.131Z,0.60
2023-04-23T12:04:37.506Z,0.60
2023-04-23T12:07:16.007Z,1.70
2023-04-23T12:09:52.653Z,0.65
2023-04-23T12:12:26.339Z,0.80
2023-04-23T12:15:04.213Z,0.73
2023-04-23T12:17:31.807Z,0.77
2023-04-23T12:19:58.853Z,0.70
2023-04-23T12:22:28.695Z,0.68
2023-04-23T12:25:09.666Z,0.80
2023-04-23T12:27:42.464Z,0.70
2023-04-23T12:30:11.815Z,0.80
2023-04-23T12:32:39.201Z,0.80
2023-04-23T12:35:06.756Z,1.35
2023-04-23T12:37:37.855Z,0.70
2023-04-23T12:40:07.354Z,0.85
2023-04-23T12:42:35.164Z,0.73
2023-04-23T12:45:10.110Z,0.60
2023-04-23T12:47:37.207Z,1.00
2023-04-23T12:50:05.811Z,0.85
2023-04-23T12:52:33.043Z,0.85
2023-04-23T12:55:01.438Z,0.55
2023-04-23T12:57:28.526Z,0.80
2023-04-23T12:59:55.514Z,1.30
2023-04-23T13:02:23.879Z,0.88
2023-04-23T13:04:51.025Z,0.70
2023-04-23T13:07:18.097Z,0.70
2023-04-23T13:09:45.300Z,0.90
2023-04-23T13:12:12.724Z,0.82
2023-04-23T13:14:39.981Z,0.80
2023-04-23T13:17:07.052Z,0.70
2023-04-23T13:19:35.595Z,0.90
2023-04-23T13:22:04.349Z,0.70
2023-04-23T13:24:31.456Z,1.05
2023-04-23T13:26:58.529Z,0.80
2023-04-23T13:29:27.337Z,0.90
2023-04-23T13:31:55.872Z,0.70
2023-04-23T13:34:22.964Z,0.70
2023-04-23T13:36:50.354Z,0.70
2023-04-23T13:39:18.292Z,1.30
2023-04-23T13:41:47.847Z,0.65
2023-04-23T13:44:18.600Z,0.70
2023-04-23T13:46:45.638Z,0.60
2023-04-23T13:49:12.671Z,2.78
2023-04-23T13:51:39.732Z,0.75
2023-04-23T13:54:07.034Z,1.15
2023-04-23T13:56:34.112Z,0.80
2023-04-23T14:01:34.470Z,0.80
2023-04-23T14:04:04.113Z,0.70
2023-04-23T14:06:31.457Z,1.90
2023-04-23T14:08:58.538Z,1.08
2023-04-23T14:11:25.892Z,0.90
2023-04-23T14:13:52.929Z,1.38
2023-04-23T14:16:20.234Z,1.63
2023-04-23T14:18:47.312Z,0.98
2023-04-23T14:21:16.285Z,1.10
2023-04-23T14:23:49.342Z,0.90
2023-04-23T14:26:46.729Z,1.00
2023-04-23T14:29:23.229Z,2.03
2023-04-23T14:31:50.674Z,1.35
2023-04-23T14:34:17.764Z,0.82
2023-04-23T14:36:46.631Z,1.20
2023-04-23T14:39:15.201Z,1.00
2023-04-23T14:41:42.215Z,1.00
2023-04-23T14:44:09.251Z,1.00
2023-04-23T14:46:36.607Z,0.95
2023-04-23T14:49:04.010Z,1.42
2023-04-23T14:51:34.377Z,0.70
2023-04-23T14:54:01.830Z,1.13
2023-04-23T14:56:29.099Z,1.10
2023-04-23T14:58:56.353Z,2.00
2023-04-23T15:01:23.914Z,1.00
2023-04-23T15:03:53.252Z,1.20
2023-04-23T15:06:20.636Z,1.58
2023-04-23T15:08:49.732Z,1.27
2023-04-23T15:11:22.051Z,1.13
2023-04-23T15:14:28.921Z,1.00
2023-04-23T15:17:10.107Z,1.00
2023-04-23T15:19:44.786Z,1.00
2023-04-23T15:22:15.005Z,1.30
2023-04-23T15:24:42.399Z,1.10
2023-04-23T15:27:11.733Z,1.67
2023-04-23T15:29:38.768Z,1.17
2023-04-23T15:32:05.856Z,1.05
2023-04-23T15:34:33.236Z,1.63
2023-04-23T15:37:00.676Z,1.10
2023-04-23T15:39:27.636Z,1.10
2023-04-23T15:41:54.970Z,1.00
2023-04-23T15:44:22.487Z,0.68
2023-04-23T15:46:49.520Z,1.42
2023-04-23T15:49:16.430Z,0.50
2023-04-23T15:51:43.638Z,0.82
2023-04-23T15:54:10.771Z,0.60
2023-04-23T15:56:37.934Z,0.60
2023-04-23T15:59:05.269Z,0.40
2023-04-23T16:01:34.638Z,0.40
2023-04-23T16:04:10.405Z,0.40
2023-04-23T16:06:38.825Z,0.70
2023-04-23T16:09:08.658Z,0.57
2023-04-23T16:11:37.237Z,0.80
2023-04-23T16:14:05.342Z,1.42
2023-04-23T16:16:33.695Z,0.73
2023-04-23T16:19:02.955Z,0.65
2023-04-23T16:21:35.782Z,0.70
2023-04-23T16:24:04.688Z,0.70
2023-04-23T16:26:31.593Z,0.80
2023-04-23T16:29:11.302Z,0.75
2023-04-23T16:31:44.360Z,0.82
2023-04-23T16:34:11.275Z,0.80
2023-04-23T16:36:38.535Z,0.75
2023-04-23T16:39:05.585Z,0.80
2023-04-23T16:41:33.730Z,0.80
2023-04-23T16:44:00.755Z,0.70
2023-04-23T16:46:31.314Z,0.90
2023-04-23T16:48:59.156Z,0.63
2023-04-23T16:51:28.389Z,0.80
2023-04-23T16:53:56.828Z,0.65
2023-04-23T16:56:24.111Z,0.75
2023-04-23T16:58:53.501Z,0.60
2023-04-23T17:01:20.477Z,0.73
2023-04-23T17:03:47.589Z,0.90
2023-04-23T17:06:29.530Z,1.00
2023-04-23T17:08:58.297Z,0.75
2023-04-23T17:11:26.158Z,1.35
2023-04-23T17:13:54.209Z,0.70
2023-04-23T17:16:21.971Z,1.10
2023-04-23T17:18:49.658Z,0.90
2023-04-23T17:21:16.953Z,0.70
2023-04-23T17:23:44.268Z,0.65
2023-04-23T17:26:11.286Z,0.70
2023-04-23T17:28:40.781Z,1.23
2023-04-23T17:31:08.916Z,0.85
2023-04-23T17:33:36.223Z,0.90
2023-04-23T17:36:03.506Z,0.77
2023-04-23T17:38:31.026Z,0.88
2023-04-23T17:40:59.013Z,0.70
2023-04-23T17:43:25.977Z,0.70
2023-04-23T17:45:53.030Z,0.73
2023-04-23T17:48:22.802Z,0.90
2023-04-23T17:50:50.858Z,1.00
2023-04-23T17:53:18.382Z,0.90
2023-04-23T17:55:45.350Z,1.05
2023-04-23T17:58:13.619Z,1.30
2023-04-23T18:00:42.586Z,1.02
2023-04-23T18:03:16.574Z,1.38
2023-04-23T18:05:44.145Z,2.10
2023-04-23T18:08:17.144Z,1.00
2023-04-23T18:10:47.507Z,1.10
2023-04-23T18:13:15.171Z,1.05
2023-04-23T18:15:42.928Z,0.90
2023-04-23T18:18:10.133Z,1.13
2023-04-23T18:20:38.963Z,1.00
2023-04-23T18:23:06.933Z,0.95
2023-04-23T18:25:34.585Z,0.90
2023-04-23T18:28:02.139Z,1.40
2023-04-23T18:30:29.418Z,1.02
2023-04-23T18:33:29.550Z,1.10
2023-04-23T18:36:00.213Z,1.00
2023-04-23T18:38:38.592Z,1.00
2023-04-23T18:41:05.947Z,1.10
2023-04-23T18:43:34.204Z,0.90
2023-04-23T18:46:04.601Z,1.15
2023-04-23T18:48:34.714Z,1.23
2023-04-23T18:51:14.744Z,0.93
2023-04-23T18:53:42.277Z,0.45
2023-04-23T18:56:09.423Z,0.50
2023-04-23T18:58:37.820Z,0.30
2023-04-23T19:01:06.318Z,0.30
2023-04-23T19:03:34.190Z,0.30
2023-04-23T19:06:07.424Z,0.40
2023-04-23T19:08:38.215Z,0.40
2023-04-23T19:11:08.626Z,0.40
2023-04-23T19:13:35.832Z,0.40
2023-04-23T19:16:03.496Z,0.30
2023-04-23T19:18:31.268Z,0.32
2023-04-23T19:20:59.940Z,0.30
2023-04-23T19:23:28.331Z,0.30
2023-04-23T19:25:55.572Z,0.35
2023-04-23T19:28:24.978Z,0.20
2023-04-23T19:30:52.421Z,0.20
2023-04-23T19:33:20.312Z,0.25
2023-04-23T19:35:47.780Z,0.40
2023-04-23T19:38:14.858Z,0.30
2023-04-23T19:40:42.212Z,0.32
2023-04-23T19:43:10.767Z,0.30
2023-04-23T19:45:39.209Z,1.13
2023-04-23T19:48:07.893Z,0.30
2023-04-23T19:50:35.242Z,0.40
2023-04-23T19:53:05.463Z,0.20
2023-04-23T19:55:32.961Z,0.28
2023-04-23T19:58:00.206Z,0.20
2023-04-23T20:00:30.041Z,0.20
2023-04-23T20:02:57.709Z,0.25
2023-04-23T20:05:26.597Z,0.20
2023-04-23T20:07:53.822Z,0.47
2023-04-23T20:10:21.011Z,0.30
2023-04-23T20:12:48.364Z,0.25
2023-04-23T20:15:15.535Z,0.43
2023-04-23T20:17:42.684Z,0.40
2023-04-23T20:20:10.790Z,0.30
2023-04-23T20:22:37.782Z,0.32
2023-04-23T20:25:05.541Z,0.40
2023-04-23T20:27:32.932Z,0.30
2023-04-23T20:30:00.269Z,0.32
2023-04-23T20:32:27.537Z,0.40
2023-04-23T20:34:55.673Z,0.30
2023-04-23T20:37:24.800Z,0.40
2023-04-23T20:39:52.450Z,0.85
2023-04-23T20:42:21.346Z,0.60
2023-04-23T20:44:51.625Z,0.50
2023-04-23T20:47:18.905Z,0.55
2023-04-23T20:49:46.057Z,0.50
2023-04-23T20:52:15.410Z,0.70
2023-04-23T20:54:42.793Z,0.63
2023-04-23T20:57:09.967Z,0.55
2023-04-23T20:59:37.037Z,0.70
2023-04-23T21:02:06.771Z,0.52
2023-04-23T21:04:34.796Z,0.50
2023-04-23T21:07:02.328Z,1.10
2023-04-23T21:09:29.342Z,0.40
2023-04-23T21:11:57.087Z,0.30
2023-04-23T21:14:24.112Z,0.30
2023-04-23T21:16:51.177Z,0.30
2023-04-23T21:19:18.242Z,0.20
2023-04-23T21:21:45.425Z,0.20
2023-04-23T21:24:12.825Z,0.22
2023-04-23T21:26:39.954Z,0.20
2023-04-23T21:29:07.033Z,0.20
2023-04-23T21:31:36.925Z,0.30
2023-04-23T21:34:03.976Z,0.28
2023-04-23T21:36:32.044Z,0.30
2023-04-23T21:38:59.049Z,0.30
2023-04-23T21:41:26.185Z,0.30
2023-04-23T21:43:53.292Z,0.30
2023-04-23T21:46:20.459Z,1.55
2023-04-23T21:48:49.617Z,0.20
2023-04-23T21:51:16.618Z,0.38
2023-04-23T21:53:43.730Z,0.28
2023-04-23T21:56:10.824Z,0.40
2023-04-23T21:58:37.945Z,0.40
2023-04-23T22:01:05.030Z,0.60
2023-04-23T22:03:38.588Z,0.60
2023-04-23T22:06:07.089Z,0.63
2023-04-23T22:08:34.742Z,0.52
2023-04-23T22:11:01.853Z,0.50
2023-04-23T22:13:28.793Z,0.68
2023-04-23T22:15:57.306Z,1.65
2023-04-23T22:18:24.532Z,0.70
2023-04-23T22:20:53.014Z,0.63
2023-04-23T22:23:20.203Z,0.70
2023-04-23T22:25:47.249Z,0.60
2023-04-23T22:28:14.386Z,0.90
2023-04-23T22:30:41.429Z,0.57
2023-04-23T22:33:08.485Z,0.68
2023-04-23T22:35:36.014Z,0.70
2023-04-23T22:38:02.990Z,0.70
2023-04-23T22:40:29.989Z,0.73
2023-04-23T22:42:57.181Z,0.52
2023-04-23T22:45:24.280Z,0.55
2023-04-23T22:47:51.543Z,0.70
2023-04-23T22:50:18.542Z,0.30
2023-04-23T22:52:45.614Z,0.77
2023-04-23T22:55:12.893Z,0.30
2023-04-23T22:57:40.504Z,0.30
2023-04-23T23:00:08.077Z,0.30
2023-04-23T23:02:35.142Z,0.38
2023-04-23T23:05:04.826Z,0.50
2023-04-23T23:07:31.936Z,0.55
2023-04-23T23:09:58.963Z,0.57
2023-04-23T23:12:25.937Z,0.70
2023-04-23T23:14:52.930Z,1.60
2023-04-23T23:17:19.874Z,1.48
2023-04-23T23:19:47.018Z,1.83
2023-04-23T23:22:14.026Z,1.70
2023-04-23T23:24:41.283Z,1.77
2023-04-23T23:27:09.820Z,1.80
2023-04-23T23:29:36.855Z,1.50
2023-04-23T23:32:04.110Z,1.30
2023-04-23T23:34:31.156Z,1.60
2023-04-23T23:36:58.122Z,1.80
2023-04-23T23:39:25.346Z,2.13
2023-04-23T23:41:52.354Z,1.80
2023-04-23T23:44:20.779Z,2.25
2023-04-23T23:46:48.098Z,2.75
2023-04-23T23:49:15.187Z,2.20
2023-04-23T23:51:42.190Z,2.03
2023-04-23T23:54:09.187Z,3.92
2023-04-23T23:56:36.183Z,3.28
2023-04-23T23:59:03.164Z,3.10
